首页
METAR-TAF:

METAR-TAF

机场 :

干邑白蘭地, 法国

纬度: 45-40N, 经度: 000-19W, 海拔: 30米

当前天气观测

该预报发布于33分钟前的21:30 UTC
风速11节,风向
温度 14°C
湿度 94%
气压 1015 hPa
能见度10公里或以上

METAR: LFBG 152130Z AUTO 18011KT 9999 ////// 14/13 Q1015

时间: 00:03 (22:03 UTC)

预报

该预报发布于8小时和3分钟前的14:00 UTC
预报有效从15日的 15点(UTC)到 16日的 15点(UTC)
风速12节,风向西转西南
能见度10公里或以上
散云层高于3000英尺
短暂存在
从 15日的 15点(UTC)到 16日的 02点(UTC)
风速15节,风向西,有时为30节阵风
能見度: 4000
多云层高于3000英尺, 积雨云.
阵雨
短暂存在
从 16日的 05点(UTC)到 16日的 15点(UTC)
风速12节,风向
能見度: 4000
阴天层高于3500英尺
小雨

TAF: LFBG 151400Z 1515/1615 25012KT 9999 SCT030 TEMPO 1515/1602 26015G30KT 4000 SHRA BKN030CB TEMPO 1605/1615 17012KT 4000 -RA OVC035

超过4000个机场的气象观测和天气预报(METAR&TAF报告)。

可查询的气象台以黄色和红色小点在地图上表示。

将鼠标移到小点上方,可查看气象台名称。

然后点击查看天气观测和预报。

如需切换地图:点击带黑十字的绿色按钮放大地图;点击带横线的绿色按钮缩小地图;或者点击绿色箭头查看邻近地区的地图。


METAR-TAF: